Time,TemperatureF,DewpointF,PressureIn,WindDirection,WindDirectionDegrees,WindSpeedMPH,WindSpeedGustMPH,Humidity,HourlyPrecipIn,Conditions,Clouds,dailyrainin,SoftwareType,DateUTC
2013-08-21 00:11:00,65.7,63.0,30.14,SSE,153,0.0,0.0,92,0.00,,,0.00,weatherlink.com 1.10,2013-08-21 04:11:00,
2013-08-21 00:26:00,65.3,63.0,30.13,SSE,153,0.0,0.0,92,0.00,,,0.00,weatherlink.com 1.10,2013-08-21 04:26:00,
2013-08-21 00:41:00,64.2,62.0,30.14,SSE,153,0.0,0.0,92,0.00,,,0.00,weatherlink.com 1.10,2013-08-21 04:41:00,
2013-08-21 00:56:00,64.3,62.0,30.14,SSE,153,0.0,0.0,93,0.00,,,0.00,weatherlink.com 1.10,2013-08-21 04:56:00,
2013-08-21 01:11:00,64.2,62.0,30.13,SSE,153,0.0,0.0,92,0.00,,,0.00,weatherlink.com 1.10,2013-08-21 05:11:00,
2013-08-21 01:27:00,63.8,62.0,30.13,SSE,153,0.0,0.0,92,0.00,,,0.00,weatherlink.com 1.10,2013-08-21 05:27:00,
2013-08-21 01:42:00,63.1,61.0,30.13,SSE,152,0.0,0.0,92,0.00,,,0.00,weatherlink.com 1.10,2013-08-21 05:42:00,
2013-08-21 01:57:00,63.0,61.0,30.13,SSE,152,0.0,0.0,93,0.00,,,0.00,weatherlink.com 1.10,2013-08-21 05:57:00,
2013-08-21 02:12:00,62.5,60.0,30.13,SSE,152,0.0,0.0,92,0.00,,,0.00,weatherlink.com 1.10,2013-08-21 06:12:00,
2013-08-21 02:27:00,62.3,60.0,30.14,SSE,152,0.0,0.0,93,0.00,,,0.00,weatherlink.com 1.10,2013-08-21 06:27:00,
2013-08-21 02:42:00,62.1,60.0,30.14,SSE,152,0.0,0.0,93,0.00,,,0.00,weatherlink.com 1.10,2013-08-21 06:42:00,
2013-08-21 02:57:00,61.7,60.0,30.14,SSE,152,0.0,0.0,93,0.00,,,0.00,weatherlink.com 1.10,2013-08-21 06:57:00,
2013-08-21 03:12:00,61.6,60.0,30.14,SSE,152,0.0,0.0,93,0.00,,,0.00,weatherlink.com 1.10,2013-08-21 07:12:00,
2013-08-21 03:27:00,61.2,59.0,30.14,SSE,152,0.0,0.0,93,0.00,,,0.00,weatherlink.com 1.10,2013-08-21 07:27:00,
2013-08-21 03:42:00,60.9,59.0,30.14,SSE,152,0.0,0.0,93,0.00,,,0.00,weatherlink.com 1.10,2013-08-21 07:42:00,
2013-08-21 03:57:00,61.1,59.0,30.14,SSE,152,0.0,0.0,93,0.00,,,0.00,weatherlink.com 1.10,2013-08-21 07:57:00,
2013-08-21 04:12:00,60.4,58.0,30.14,SSE,152,0.0,0.0,93,0.00,,,0.00,weatherlink.com 1.10,2013-08-21 08:12:00,
2013-08-21 04:27:00,60.6,59.0,30.14,SSE,152,0.0,0.0,94,0.00,,,0.00,weatherlink.com 1.10,2013-08-21 08:27:00,
2013-08-21 04:42:00,60.7,59.0,30.14,SSE,152,0.0,0.0,94,0.00,,,0.00,weatherlink.com 1.10,2013-08-21 08:42:00,
2013-08-21 04:57:00,60.7,59.0,30.15,SSE,152,0.0,0.0,94,0.00,,,0.00,weatherlink.com 1.10,2013-08-21 08:57:00,
2013-08-21 05:12:00,60.8,59.0,30.15,SSE,152,0.0,0.0,94,0.00,,,0.00,weatherlink.com 1.10,2013-08-21 09:12:00,
2013-08-21 05:27:00,60.7,59.0,30.15,SSE,152,0.0,0.0,94,0.00,,,0.00,weatherlink.com 1.10,2013-08-21 09:27:00,
2013-08-21 05:42:00,60.8,59.0,30.15,SSE,152,0.0,0.0,94,0.00,,,0.00,weatherlink.com 1.10,2013-08-21 09:42:00,
2013-08-21 05:57:00,60.6,59.0,30.15,SSE,152,0.0,0.0,94,0.00,,,0.00,weatherlink.com 1.10,2013-08-21 09:57:00,
2013-08-21 06:12:00,60.5,59.0,30.16,SSE,152,0.0,0.0,94,0.00,,,0.00,weatherlink.com 1.10,2013-08-21 10:12:00,
2013-08-21 06:27:00,60.3,59.0,30.16,SSE,152,0.0,0.0,94,0.00,,,0.00,weatherlink.com 1.10,2013-08-21 10:27:00,
2013-08-21 06:42:00,60.7,59.0,30.16,SSE,152,0.0,0.0,94,0.00,,,0.00,weatherlink.com 1.10,2013-08-21 10:42:00,
2013-08-21 06:57:00,61.6,60.0,30.16,SSE,152,0.0,0.0,95,0.00,,,0.00,weatherlink.com 1.10,2013-08-21 10:57:00,
2013-08-21 07:12:00,62.5,61.0,30.17,SSE,152,0.0,0.0,95,0.00,,,0.00,weatherlink.com 1.10,2013-08-21 11:12:00,
2013-08-21 07:27:00,64.1,63.0,30.17,SSE,152,0.0,0.0,96,0.00,,,0.00,weatherlink.com 1.10,2013-08-21 11:27:00,
2013-08-21 07:42:00,65.6,65.0,30.17,SSE,152,0.0,0.0,96,0.00,,,0.00,weatherlink.com 1.10,2013-08-21 11:42:00,
2013-08-21 07:57:00,66.9,66.0,30.17,SSE,153,0.0,0.0,96,0.00,,,0.00,weatherlink.com 1.10,2013-08-21 11:57:00,
2013-08-21 08:12:00,68.0,67.0,30.18,SW,219,0.0,1.0,96,0.00,,,0.00,weatherlink.com 1.10,2013-08-21 12:12:00,
2013-08-21 08:27:00,68.8,68.0,30.18,West,270,0.0,1.0,96,0.00,,,0.00,weatherlink.com 1.10,2013-08-21 12:27:00,
2013-08-21 08:42:00,69.9,69.0,30.18,SSW,207,1.0,2.0,95,0.00,,,0.00,weatherlink.com 1.10,2013-08-21 12:42:00,
2013-08-21 08:57:00,71.3,70.0,30.18,SW,230,2.0,2.0,94,0.00,,,0.00,weatherlink.com 1.10,2013-08-21 12:57:00,
2013-08-21 09:12:00,73.1,71.0,30.18,SW,223,0.0,3.0,92,0.00,,,0.00,weatherlink.com 1.10,2013-08-21 13:12:00,
2013-08-21 09:27:00,75.6,72.0,30.17,West,271,1.0,4.0,89,0.00,,,0.00,weatherlink.com 1.10,2013-08-21 13:27:00,
2013-08-21 09:42:00,76.6,72.0,30.17,WSW,255,1.0,4.0,86,0.00,,,0.00,weatherlink.com 1.10,2013-08-21 13:42:00,
2013-08-21 09:58:00,78.7,73.0,30.17,West,269,2.0,5.0,82,0.00,,,0.00,weatherlink.com 1.10,2013-08-21 13:58:00,
2013-08-21 10:13:00,79.5,73.0,30.18,SW,231,0.0,5.0,81,0.00,,,0.00,weatherlink.com 1.10,2013-08-21 14:13:00,
2013-08-21 10:28:00,80.6,73.0,30.17,WSW,250,0.0,4.0,77,0.00,,,0.00,weatherlink.com 1.10,2013-08-21 14:28:00,
2013-08-21 10:43:00,81.3,73.0,30.17,SE,139,0.0,3.0,76,0.00,,,0.00,weatherlink.com 1.10,2013-08-21 14:43:00,
2013-08-21 10:58:00,82.2,72.0,30.17,SE,140,1.0,5.0,72,0.00,,,0.00,weatherlink.com 1.10,2013-08-21 14:58:00,
2013-08-21 11:13:00,82.9,70.0,30.17,WNW,291,0.0,3.0,66,0.00,,,0.00,weatherlink.com 1.10,2013-08-21 15:13:00,
2013-08-21 11:28:00,84.5,70.0,30.16,SSE,165,0.0,0.0,62,0.00,,,0.00,weatherlink.com 1.10,2013-08-21 15:28:00,
2013-08-21 11:43:00,84.7,70.0,30.16,WSW,240,0.0,0.0,61,0.00,,,0.00,weatherlink.com 1.10,2013-08-21 15:43:00,
2013-08-21 11:58:00,84.9,71.0,30.16,West,281,0.0,0.0,63,0.00,,,0.00,weatherlink.com 1.10,2013-08-21 15:58:00,
2013-08-21 12:13:00,84.8,71.0,30.16,SSW,205,0.0,0.0,63,0.00,,,0.00,weatherlink.com 1.10,2013-08-21 16:13:00,
2013-08-21 12:28:00,84.3,71.0,30.16,SW,234,0.0,0.0,65,0.00,,,0.00,weatherlink.com 1.10,2013-08-21 16:28:00,
2013-08-21 12:43:00,84.7,71.0,30.16,WSW,252,0.0,0.0,63,0.00,,,0.00,weatherlink.com 1.10,2013-08-21 16:43:00,
2013-08-21 12:58:00,85.0,71.0,30.16,SSW,198,0.0,0.0,63,0.00,,,0.00,weatherlink.com 1.10,2013-08-21 16:58:00,
2013-08-21 13:13:00,84.6,71.0,30.15,West,262,0.0,0.0,64,0.00,,,0.00,weatherlink.com 1.10,2013-08-21 17:13:00,
2013-08-21 13:28:00,84.8,70.0,30.15,SW,235,0.0,1.0,62,0.00,,,0.00,weatherlink.com 1.10,2013-08-21 17:28:00,
2013-08-21 13:43:00,85.8,71.0,30.14,WSW,247,0.0,4.0,62,0.00,,,0.00,weatherlink.com 1.10,2013-08-21 17:43:00,
2013-08-21 14:13:00,86.7,72.0,30.13,WSW,248,0.0,0.0,62,0.00,,,0.00,weatherlink.com 1.10,2013-08-21 18:13:00,
2013-08-21 14:28:00,86.6,72.0,30.13,WSW,240,0.0,0.0,61,0.00,,,0.00,weatherlink.com 1.10,2013-08-21 18:28:00,
2013-08-21 14:43:00,86.4,72.0,30.12,West,278,0.0,0.0,63,0.00,,,0.00,weatherlink.com 1.10,2013-08-21 18:43:00,
2013-08-21 14:58:00,87.4,71.0,30.12,WSW,254,0.0,0.0,59,0.00,,,0.00,weatherlink.com 1.10,2013-08-21 18:58:00,
2013-08-21 15:13:00,87.0,72.0,30.11,WNW,300,0.0,0.0,61,0.00,,,0.00,weatherlink.com 1.10,2013-08-21 19:13:00,
2013-08-21 15:28:00,87.0,71.0,30.11,WNW,297,0.0,0.0,59,0.00,,,0.00,weatherlink.com 1.10,2013-08-21 19:28:00,
2013-08-21 15:43:00,86.7,72.0,30.10,NW,309,0.0,3.0,61,0.00,,,0.00,weatherlink.com 1.10,2013-08-21 19:43:00,
2013-08-21 15:58:00,87.4,72.0,30.10,WNW,293,0.0,4.0,60,0.00,,,0.00,weatherlink.com 1.10,2013-08-21 19:58:00,
2013-08-21 16:13:00,87.0,71.0,30.09,SW,227,0.0,4.0,60,0.00,,,0.00,weatherlink.com 1.10,2013-08-21 20:13:00,
2013-08-21 16:28:00,88.0,72.0,30.09,West,279,0.0,0.0,60,0.00,,,0.00,weatherlink.com 1.10,2013-08-21 20:28:00,
2013-08-21 16:43:00,88.1,72.0,30.09,West,279,0.0,3.0,59,0.00,,,0.00,weatherlink.com 1.10,2013-08-21 20:43:00,
2013-08-21 16:58:00,86.9,72.0,30.08,WSW,251,0.0,2.0,61,0.00,,,0.00,weatherlink.com 1.10,2013-08-21 20:58:00,
2013-08-21 17:13:00,87.3,72.0,30.07,SW,216,0.0,0.0,60,0.00,,,0.00,weatherlink.com 1.10,2013-08-21 21:13:00,
2013-08-21 17:28:00,86.8,73.0,30.07,SSW,195,0.0,0.0,64,0.00,,,0.00,weatherlink.com 1.10,2013-08-21 21:28:00,
2013-08-21 17:43:00,85.3,74.0,30.07,SSW,207,4.0,4.0,68,0.00,,,0.00,weatherlink.com 1.10,2013-08-21 21:43:00,
2013-08-21 17:58:00,84.3,74.0,30.07,WSW,242,3.0,6.0,71,0.00,,,0.00,weatherlink.com 1.10,2013-08-21 21:58:00,
2013-08-21 18:14:00,85.0,74.0,30.07,SSW,205,5.0,7.0,69,0.00,,,0.00,weatherlink.com 1.10,2013-08-21 22:14:00,
2013-08-21 18:29:00,83.7,74.0,30.06,WSW,250,2.0,6.0,73,0.00,,,0.00,weatherlink.com 1.10,2013-08-21 22:29:00,
2013-08-21 18:44:00,83.5,74.0,30.07,SW,226,2.0,9.0,72,0.00,,,0.00,weatherlink.com 1.10,2013-08-21 22:44:00,
2013-08-21 18:59:00,82.0,74.0,30.07,SSW,199,2.0,4.0,76,0.00,,,0.00,weatherlink.com 1.10,2013-08-21 22:59:00,
2013-08-21 19:14:00,80.7,73.0,30.07,SSW,207,1.0,8.0,78,0.00,,,0.00,weatherlink.com 1.10,2013-08-21 23:14:00,
2013-08-21 19:29:00,79.4,72.0,30.08,SW,221,2.0,6.0,79,0.00,,,0.00,weatherlink.com 1.10,2013-08-21 23:29:00,
2013-08-21 19:44:00,78.0,72.0,30.08,SSW,196,1.0,3.0,82,0.00,,,0.00,weatherlink.com 1.10,2013-08-21 23:44:00,
2013-08-21 19:59:00,76.7,71.0,30.08,South,174,1.0,3.0,83,0.00,,,0.00,weatherlink.com 1.10,2013-08-21 23:59:00,
2013-08-21 20:14:00,75.5,70.0,30.08,SSE,167,0.0,2.0,84,0.00,,,0.00,weatherlink.com 1.10,2013-08-22 00:14:00,
2013-08-21 20:29:00,74.4,70.0,30.07,SSE,167,0.0,0.0,87,0.00,,,0.00,weatherlink.com 1.10,2013-08-22 00:29:00,
2013-08-21 20:44:00,73.2,70.0,30.08,SSE,167,0.0,0.0,89,0.00,,,0.00,weatherlink.com 1.10,2013-08-22 00:44:00,
2013-08-21 20:59:00,72.6,70.0,30.09,SSE,167,0.0,0.0,90,0.00,,,0.00,weatherlink.com 1.10,2013-08-22 00:59:00,
2013-08-21 21:14:00,71.9,69.0,30.09,SSE,167,0.0,0.0,90,0.00,,,0.00,weatherlink.com 1.10,2013-08-22 01:14:00,
2013-08-21 21:29:00,71.2,69.0,30.08,SSE,147,0.0,0.0,91,0.00,,,0.00,weatherlink.com 1.10,2013-08-22 01:29:00,
2013-08-21 21:44:00,70.9,68.0,30.08,SE,138,0.0,0.0,91,0.00,,,0.00,weatherlink.com 1.10,2013-08-22 01:44:00,
2013-08-21 21:59:00,70.3,68.0,30.07,SE,138,0.0,0.0,91,0.00,,,0.00,weatherlink.com 1.10,2013-08-22 01:59:00,
2013-08-21 22:14:00,69.7,67.0,30.07,SE,138,0.0,0.0,91,0.00,,,0.00,weatherlink.com 1.10,2013-08-22 02:14:00,
2013-08-21 22:29:00,69.1,67.0,30.08,SE,136,0.0,0.0,92,0.00,,,0.00,weatherlink.com 1.10,2013-08-22 02:29:00,
2013-08-21 22:44:00,68.7,66.0,30.08,SE,137,0.0,0.0,92,0.00,,,0.00,weatherlink.com 1.10,2013-08-22 02:44:00,
2013-08-21 22:59:00,68.4,66.0,30.08,SE,137,0.0,0.0,91,0.00,,,0.00,weatherlink.com 1.10,2013-08-22 02:59:00,
2013-08-21 23:14:00,68.3,66.0,30.08,SE,137,0.0,0.0,91,0.00,,,0.00,weatherlink.com 1.10,2013-08-22 03:14:00,
2013-08-21 23:29:00,68.6,66.0,30.08,SE,137,0.0,0.0,91,0.00,,,0.00,weatherlink.com 1.10,2013-08-22 03:29:00,
2013-08-21 23:44:00,68.7,66.0,30.08,SE,134,0.0,0.0,91,0.00,,,0.00,weatherlink.com 1.10,2013-08-22 03:44:00,
2013-08-21 23:59:00,68.6,66.0,30.07,SE,132,0.0,1.0,91,0.00,,,0.00,weatherlink.com 1.10,2013-08-22 03:59:00,